sensor_id;sensor_type;location;lat;lon;timestamp;pressure;altitude;pressure_sealevel;temperature;humidity
47883;BME280;37739;50.350;7.578;2023-03-26T00:01:45;99014.84;;;8.59;77.74
47883;BME280;37739;50.350;7.578;2023-03-26T00:04:16;99031.97;;;8.61;76.84
47883;BME280;37739;50.350;7.578;2023-03-26T00:06:44;99022.41;;;8.56;77.59
47883;BME280;37739;50.350;7.578;2023-03-26T00:09:14;99032.56;;;8.53;77.75
47883;BME280;37739;50.350;7.578;2023-03-26T00:11:41;99031.59;;;8.49;78.32
47883;BME280;37739;50.350;7.578;2023-03-26T00:14:06;99032.69;;;8.57;77.58
47883;BME280;37739;50.350;7.578;2023-03-26T00:16:33;99038.66;;;8.58;77.72
47883;BME280;37739;50.350;7.578;2023-03-26T00:19:01;99034.53;;;8.61;77.73
47883;BME280;37739;50.350;7.578;2023-03-26T00:21:29;99043.13;;;8.63;77.49
47883;BME280;37739;50.350;7.578;2023-03-26T00:23:57;99031.16;;;8.62;78.04
47883;BME280;37739;50.350;7.578;2023-03-26T00:26:26;99042.13;;;8.58;77.76
47883;BME280;37739;50.350;7.578;2023-03-26T00:28:53;99033.47;;;8.55;78.31
47883;BME280;37739;50.350;7.578;2023-03-26T00:31:23;99035.13;;;8.54;78.36
47883;BME280;37739;50.350;7.578;2023-03-26T00:33:50;99036.78;;;8.52;78.05
47883;BME280;37739;50.350;7.578;2023-03-26T00:36:19;99037.63;;;8.51;78.50
47883;BME280;37739;50.350;7.578;2023-03-26T00:38:48;99040.13;;;8.50;78.80
47883;BME280;37739;50.350;7.578;2023-03-26T00:41:18;99030.81;;;8.52;78.41
47883;BME280;37739;50.350;7.578;2023-03-26T00:43:52;99036.59;;;8.46;78.57
47883;BME280;37739;50.350;7.578;2023-03-26T00:46:20;99036.66;;;8.48;77.94
47883;BME280;37739;50.350;7.578;2023-03-26T00:48:46;99028.13;;;8.47;77.94
47883;BME280;37739;50.350;7.578;2023-03-26T00:51:13;99037.31;;;8.42;78.76
47883;BME280;37739;50.350;7.578;2023-03-26T00:53:43;99030.56;;;8.44;78.87
47883;BME280;37739;50.350;7.578;2023-03-26T00:56:08;99039.16;;;8.46;78.42
47883;BME280;37739;50.350;7.578;2023-03-26T00:58:34;99031.34;;;8.41;78.90
47883;BME280;37739;50.350;7.578;2023-03-26T01:01:01;99026.06;;;8.38;79.41
47883;BME280;37739;50.350;7.578;2023-03-26T01:03:30;99021.75;;;8.36;79.29
47883;BME280;37739;50.350;7.578;2023-03-26T01:06:01;99022.72;;;8.39;79.36
47883;BME280;37739;50.350;7.578;2023-03-26T01:08:32;99028.78;;;8.41;79.37
47883;BME280;37739;50.350;7.578;2023-03-26T01:11:01;99016.56;;;8.34;79.25
47883;BME280;37739;50.350;7.578;2023-03-26T01:13:35;99020.00;;;8.35;79.26
47883;BME280;37739;50.350;7.578;2023-03-26T01:16:04;99005.38;;;8.31;79.71
47883;BME280;37739;50.350;7.578;2023-03-26T01:18:32;99009.69;;;8.32;79.21
47883;BME280;37739;50.350;7.578;2023-03-26T01:21:05;99001.84;;;8.27;79.65
47883;BME280;37739;50.350;7.578;2023-03-26T01:23:47;99002.75;;;8.29;79.74
47883;BME280;37739;50.350;7.578;2023-03-26T01:26:41;98989.06;;;8.27;79.65
47883;BME280;37739;50.350;7.578;2023-03-26T01:30:05;98984.78;;;8.26;79.29
47883;BME280;37739;50.350;7.578;2023-03-26T01:35:11;98988.16;;;8.25;79.76
47883;BME280;37739;50.350;7.578;2023-03-26T01:40:27;98982.84;;;8.19;80.10
47883;BME280;37739;50.350;7.578;2023-03-26T01:45:48;98976.94;;;8.20;79.77
47883;BME280;37739;50.350;7.578;2023-03-26T01:48:14;98982.91;;;8.20;79.69
47883;BME280;37739;50.350;7.578;2023-03-26T01:50:44;98982.78;;;8.17;80.04
47883;BME280;37739;50.350;7.578;2023-03-26T01:53:11;98980.34;;;8.20;79.63
47883;BME280;37739;50.350;7.578;2023-03-26T01:58:35;98971.81;;;8.20;80.31
47883;BME280;37739;50.350;7.578;2023-03-26T02:03:49;98954.94;;;8.25;79.77
47883;BME280;37739;50.350;7.578;2023-03-26T02:06:35;98948.19;;;8.27;79.82
47883;BME280;37739;50.350;7.578;2023-03-26T02:09:09;98943.25;;;8.32;79.52
47883;BME280;37739;50.350;7.578;2023-03-26T02:11:39;98936.50;;;8.34;79.52
47883;BME280;37739;50.350;7.578;2023-03-26T02:14:06;98939.91;;;8.34;79.54
47883;BME280;37739;50.350;7.578;2023-03-26T02:16:32;98938.16;;;8.33;79.79
47883;BME280;37739;50.350;7.578;2023-03-26T02:19:00;98927.06;;;8.33;79.53
47883;BME280;37739;50.350;7.578;2023-03-26T02:21:27;98928.88;;;8.35;79.69
47883;BME280;37739;50.350;7.578;2023-03-26T02:23:55;98922.81;;;8.33;79.44
47883;BME280;37739;50.350;7.578;2023-03-26T02:26:27;98921.16;;;8.34;79.62
47883;BME280;37739;50.350;7.578;2023-03-26T02:28:53;98912.56;;;8.32;79.71
47883;BME280;37739;50.350;7.578;2023-03-26T02:31:23;98909.25;;;8.34;79.51
47883;BME280;37739;50.350;7.578;2023-03-26T02:33:53;98903.31;;;8.35;79.46
47883;BME280;37739;50.350;7.578;2023-03-26T02:36:20;98891.47;;;8.39;79.36
47883;BME280;37739;50.350;7.578;2023-03-26T02:38:48;98900.19;;;8.44;79.52
47883;BME280;37739;50.350;7.578;2023-03-26T02:41:14;98892.47;;;8.42;79.01
47883;BME280;37739;50.350;7.578;2023-03-26T02:43:39;98886.41;;;8.40;79.43
47883;BME280;37739;50.350;7.578;2023-03-26T02:46:05;98886.50;;;8.42;79.27
47883;BME280;37739;50.350;7.578;2023-03-26T02:48:30;98887.38;;;8.42;79.28
47883;BME280;37739;50.350;7.578;2023-03-26T02:51:01;98880.53;;;8.41;79.22
47883;BME280;37739;50.350;7.578;2023-03-26T02:53:29;98883.09;;;8.41;78.90
47883;BME280;37739;50.350;7.578;2023-03-26T02:55:57;98875.50;;;8.44;78.75
47883;BME280;37739;50.350;7.578;2023-03-26T02:58:26;98877.25;;;8.45;78.75
47883;BME280;37739;50.350;7.578;2023-03-26T03:00:56;98861.06;;;8.47;78.36
47883;BME280;37739;50.350;7.578;2023-03-26T03:03:27;98868.84;;;8.50;78.26
47883;BME280;37739;50.350;7.578;2023-03-26T03:05:56;98859.47;;;8.50;77.92
47883;BME280;37739;50.350;7.578;2023-03-26T03:08:26;98859.47;;;8.50;78.56
47883;BME280;37739;50.350;7.578;2023-03-26T03:11:08;98852.66;;;8.49;78.32
47883;BME280;37739;50.350;7.578;2023-03-26T03:13:34;98857.72;;;8.48;78.59
47883;BME280;37739;50.350;7.578;2023-03-26T03:15:59;98848.44;;;8.51;78.11
47883;BME280;37739;50.350;7.578;2023-03-26T03:18:25;98846.81;;;8.53;78.05
47883;BME280;37739;50.350;7.578;2023-03-26T03:20:53;98850.16;;;8.52;78.26
47883;BME280;37739;50.350;7.578;2023-03-26T03:23:25;98841.69;;;8.53;78.46
47883;BME280;37739;50.350;7.578;2023-03-26T03:25:51;98837.38;;;8.52;78.31
47883;BME280;37739;50.350;7.578;2023-03-26T03:28:21;98839.09;;;8.52;78.37
47883;BME280;37739;50.350;7.578;2023-03-26T03:30:47;98836.66;;;8.56;78.54
47883;BME280;37739;50.350;7.578;2023-03-26T03:33:13;98834.09;;;8.56;78.33
47883;BME280;37739;50.350;7.578;2023-03-26T03:35:38;98834.97;;;8.57;78.66
47883;BME280;37739;50.350;7.578;2023-03-26T03:38:08;98836.69;;;8.58;78.92
47883;BME280;37739;50.350;7.578;2023-03-26T03:40:34;98826.53;;;8.59;78.96
47883;BME280;37739;50.350;7.578;2023-03-26T03:42:59;98826.44;;;8.56;78.88
47883;BME280;37739;50.350;7.578;2023-03-26T03:45:27;98822.94;;;8.53;79.20
47883;BME280;37739;50.350;7.578;2023-03-26T03:47:52;98821.28;;;8.55;79.30
47883;BME280;37739;50.350;7.578;2023-03-26T03:50:18;98816.19;;;8.56;79.25
47883;BME280;37739;50.350;7.578;2023-03-26T03:52:46;98808.47;;;8.53;79.01
47883;BME280;37739;50.350;7.578;2023-03-26T03:55:11;98802.50;;;8.53;79.33
47883;BME280;37739;50.350;7.578;2023-03-26T03:57:38;98805.16;;;8.57;79.04
47883;BME280;37739;50.350;7.578;2023-03-26T04:00:05;98796.59;;;8.55;79.18
47883;BME280;37739;50.350;7.578;2023-03-26T04:02:36;98802.59;;;8.57;78.99
47883;BME280;37739;50.350;7.578;2023-03-26T04:05:04;98803.56;;;8.61;78.98
47883;BME280;37739;50.350;7.578;2023-03-26T04:07:31;98784.81;;;8.60;79.49
47883;BME280;37739;50.350;7.578;2023-03-26T04:10:00;98783.94;;;8.60;80.03
47883;BME280;37739;50.350;7.578;2023-03-26T04:12:33;98782.97;;;8.56;80.68
47883;BME280;37739;50.350;7.578;2023-03-26T04:15:02;98781.31;;;8.57;79.93
47883;BME280;37739;50.350;7.578;2023-03-26T04:17:32;98771.03;;;8.55;80.37
47883;BME280;37739;50.350;7.578;2023-03-26T04:19:58;98769.28;;;8.54;81.05
47883;BME280;37739;50.350;7.578;2023-03-26T04:22:34;98760.84;;;8.57;81.19
47883;BME280;37739;50.350;7.578;2023-03-26T04:25:00;98760.06;;;8.59;80.61
47883;BME280;37739;50.350;7.578;2023-03-26T04:27:29;98761.88;;;8.63;80.38
47883;BME280;37739;50.350;7.578;2023-03-26T04:29:56;98749.03;;;8.62;80.16
47883;BME280;37739;50.350;7.578;2023-03-26T04:32:28;98741.38;;;8.62;80.50
47883;BME280;37739;50.350;7.578;2023-03-26T04:34:57;98734.59;;;8.64;80.82
47883;BME280;37739;50.350;7.578;2023-03-26T04:37:30;98732.06;;;8.64;80.37
47883;BME280;37739;50.350;7.578;2023-03-26T04:40:03;98726.97;;;8.65;80.47
47883;BME280;37739;50.350;7.578;2023-03-26T04:42:37;98717.59;;;8.64;80.75
47883;BME280;37739;50.350;7.578;2023-03-26T04:45:11;98718.47;;;8.65;80.50
47883;BME280;37739;50.350;7.578;2023-03-26T04:47:39;98709.97;;;8.66;80.55
47883;BME280;37739;50.350;7.578;2023-03-26T04:50:10;98696.31;;;8.65;80.73
47883;BME280;37739;50.350;7.578;2023-03-26T04:52:36;98698.91;;;8.67;80.83
47883;BME280;37739;50.350;7.578;2023-03-26T04:55:06;98689.53;;;8.68;80.61
47883;BME280;37739;50.350;7.578;2023-03-26T04:57:42;98678.41;;;8.65;81.48
47883;BME280;37739;50.350;7.578;2023-03-26T05:00:13;98674.19;;;8.66;81.29
47883;BME280;37739;50.350;7.578;2023-03-26T05:02:40;98661.31;;;8.63;81.82
47883;BME280;37739;50.350;7.578;2023-03-26T05:05:07;98662.16;;;8.63;81.76
47883;BME280;37739;50.350;7.578;2023-03-26T05:07:37;98651.88;;;8.62;81.82
47883;BME280;37739;50.350;7.578;2023-03-26T05:10:03;98644.22;;;8.60;82.21
47883;BME280;37739;50.350;7.578;2023-03-26T05:12:29;98646.66;;;8.57;82.78
47883;BME280;37739;50.350;7.578;2023-03-26T05:14:55;98639.84;;;8.58;82.22
47883;BME280;37739;50.350;7.578;2023-03-26T05:17:21;98631.44;;;8.62;81.55
47883;BME280;37739;50.350;7.578;2023-03-26T05:19:50;98629.72;;;8.61;81.70
47883;BME280;37739;50.350;7.578;2023-03-26T05:22:17;98615.09;;;8.55;81.92
47883;BME280;37739;50.350;7.578;2023-03-26T05:24:44;98610.78;;;8.54;82.05
47883;BME280;37739;50.350;7.578;2023-03-26T05:27:15;98616.59;;;8.49;81.91
47883;BME280;37739;50.350;7.578;2023-03-26T05:29:44;98607.13;;;8.44;82.56
47883;BME280;37739;50.350;7.578;2023-03-26T05:32:12;98595.91;;;8.41;82.63
47883;BME280;37739;50.350;7.578;2023-03-26T05:34:40;98595.91;;;8.41;82.28
47883;BME280;37739;50.350;7.578;2023-03-26T05:37:08;98584.06;;;8.41;83.25
47883;BME280;37739;50.350;7.578;2023-03-26T05:39:38;98579.00;;;8.44;83.11
47883;BME280;37739;50.350;7.578;2023-03-26T05:42:07;98581.34;;;8.37;83.38
47883;BME280;37739;50.350;7.578;2023-03-26T05:44:37;98579.47;;;8.31;83.94
47883;BME280;37739;50.350;7.578;2023-03-26T05:47:03;98576.97;;;8.33;84.08
47883;BME280;37739;50.350;7.578;2023-03-26T05:49:34;98576.16;;;8.34;85.00
47883;BME280;37739;50.350;7.578;2023-03-26T05:52:00;98581.34;;;8.37;83.61
47883;BME280;37739;50.350;7.578;2023-03-26T05:54:28;98563.34;;;8.32;84.89
47883;BME280;37739;50.350;7.578;2023-03-26T05:56:53;98566.75;;;8.33;84.54
47883;BME280;37739;50.350;7.578;2023-03-26T05:59:18;98562.50;;;8.32;84.42
47883;BME280;37739;50.350;7.578;2023-03-26T06:01:46;98566.59;;;8.26;84.54
47883;BME280;37739;50.350;7.578;2023-03-26T06:04:12;98567.47;;;8.27;85.50
47883;BME280;37739;50.350;7.578;2023-03-26T06:06:39;98560.53;;;8.23;85.32
47883;BME280;37739;50.350;7.578;2023-03-26T06:09:05;98553.78;;;8.25;85.52
47883;BME280;37739;50.350;7.578;2023-03-26T06:11:36;98555.38;;;8.20;86.16
47883;BME280;37739;50.350;7.578;2023-03-26T06:14:06;98551.03;;;8.17;85.93
47883;BME280;37739;50.350;7.578;2023-03-26T06:16:34;98546.78;;;8.18;86.39
47883;BME280;37739;50.350;7.578;2023-03-26T06:19:01;98540.03;;;8.20;86.49
47883;BME280;37739;50.350;7.578;2023-03-26T06:21:29;98549.41;;;8.21;85.96
47883;BME280;37739;50.350;7.578;2023-03-26T06:23:55;98556.09;;;8.16;87.10
47883;BME280;37739;50.350;7.578;2023-03-26T06:26:24;98553.41;;;8.11;87.98
47883;BME280;37739;50.350;7.578;2023-03-26T06:28:52;98547.44;;;8.11;88.26
47883;BME280;37739;50.350;7.578;2023-03-26T06:31:17;98549.97;;;8.09;88.71
47883;BME280;37739;50.350;7.578;2023-03-26T06:33:43;98543.25;;;8.13;88.68
47883;BME280;37739;50.350;7.578;2023-03-26T06:36:12;98527.81;;;8.10;89.34
47883;BME280;37739;50.350;7.578;2023-03-26T06:38:40;98521.06;;;8.12;88.77
47883;BME280;37739;50.350;7.578;2023-03-26T06:41:06;98525.38;;;8.13;88.64
47883;BME280;37739;50.350;7.578;2023-03-26T06:43:34;98517.72;;;8.13;88.47
47883;BME280;37739;50.350;7.578;2023-03-26T06:46:01;98520.25;;;8.13;89.06
47883;BME280;37739;50.350;7.578;2023-03-26T06:48:30;98507.44;;;8.11;89.10
47883;BME280;37739;50.350;7.578;2023-03-26T06:50:58;98514.28;;;8.12;88.82
47883;BME280;37739;50.350;7.578;2023-03-26T06:53:23;98514.31;;;8.14;88.58
47883;BME280;37739;50.350;7.578;2023-03-26T06:55:49;98515.16;;;8.13;89.74
47883;BME280;37739;50.350;7.578;2023-03-26T06:58:16;98514.19;;;8.09;89.62
47883;BME280;37739;50.350;7.578;2023-03-26T07:00:42;98509.94;;;8.10;89.79
47883;BME280;37739;50.350;7.578;2023-03-26T07:03:09;98502.34;;;8.11;90.24
47883;BME280;37739;50.350;7.578;2023-03-26T07:05:39;98503.19;;;8.12;90.44
47883;BME280;37739;50.350;7.578;2023-03-26T07:08:07;98506.59;;;8.11;90.77
47883;BME280;37739;50.350;7.578;2023-03-26T07:10:38;98498.03;;;8.10;90.95
47883;BME280;37739;50.350;7.578;2023-03-26T07:13:03;98499.69;;;8.08;91.24
47883;BME280;37739;50.350;7.578;2023-03-26T07:15:28;98502.25;;;8.08;90.97
47883;BME280;37739;50.350;7.578;2023-03-26T07:17:56;98497.97;;;8.07;91.01
47883;BME280;37739;50.350;7.578;2023-03-26T07:20:26;98481.69;;;8.03;92.15
47883;BME280;37739;50.350;7.578;2023-03-26T07:22:52;98491.88;;;8.02;91.26
47883;BME280;37739;50.350;7.578;2023-03-26T07:25:18;98491.09;;;8.04;91.84
47883;BME280;37739;50.350;7.578;2023-03-26T07:33:39;98477.41;;;8.02;93.18
47883;BME280;37739;50.350;7.578;2023-03-26T07:41:40;98460.38;;;8.01;92.98
47883;BME280;37739;50.350;7.578;2023-03-26T07:46:55;98450.19;;;8.03;92.92
47883;BME280;37739;50.350;7.578;2023-03-26T07:49:23;98454.41;;;8.02;92.55
47883;BME280;37739;50.350;7.578;2023-03-26T07:51:49;98445.94;;;8.03;92.22
47883;BME280;37739;50.350;7.578;2023-03-26T07:54:17;98439.13;;;8.04;93.05
47883;BME280;37739;50.350;7.578;2023-03-26T07:57:01;98444.25;;;8.04;93.09
47883;BME280;37739;50.350;7.578;2023-03-26T08:07:40;98424.94;;;8.15;93.46
47883;BME280;37739;50.350;7.578;2023-03-26T08:12:58;98419.94;;;8.18;93.42
47883;BME280;37739;50.350;7.578;2023-03-26T08:18:00;98408.09;;;8.22;92.82
47883;BME280;37739;50.350;7.578;2023-03-26T08:20:41;98400.47;;;8.25;92.79
47883;BME280;37739;50.350;7.578;2023-03-26T08:26:08;98394.47;;;8.23;92.73
47883;BME280;37739;50.350;7.578;2023-03-26T08:31:07;98394.34;;;8.17;92.36
47883;BME280;37739;50.350;7.578;2023-03-26T08:33:33;98399.53;;;8.20;91.66
47883;BME280;37739;50.350;7.578;2023-03-26T08:36:03;98398.59;;;8.18;92.05
47883;BME280;37739;50.350;7.578;2023-03-26T08:38:30;98399.41;;;8.15;91.89
47883;BME280;37739;50.350;7.578;2023-03-26T08:44:29;98394.25;;;8.12;92.02
47883;BME280;37739;50.350;7.578;2023-03-26T08:50:31;98382.06;;;8.02;91.86
47883;BME280;37739;50.350;7.578;2023-03-26T08:52:56;98369.25;;;8.00;91.58
47883;BME280;37739;50.350;7.578;2023-03-26T08:55:52;98365.88;;;8.01;91.63
47883;BME280;37739;50.350;7.578;2023-03-26T08:58:51;98361.66;;;8.03;90.69
47883;BME280;37739;50.350;7.578;2023-03-26T09:09:59;98340.47;;;8.44;90.56
47883;BME280;37739;50.350;7.578;2023-03-26T09:26:28;98317.34;;;8.79;88.24
47883;BME280;37739;50.350;7.578;2023-03-26T09:40:14;98302.06;;;8.82;88.45
47883;BME280;37739;50.350;7.578;2023-03-26T09:48:35;98286.59;;;8.74;88.46
47883;BME280;37739;50.350;7.578;2023-03-26T09:59:42;98303.75;;;8.80;89.16
47883;BME280;37739;50.350;7.578;2023-03-26T10:03:18;98301.53;;;8.98;89.68
47883;BME280;37739;50.350;7.578;2023-03-26T10:08:14;98303.94;;;8.91;89.72
47883;BME280;37739;50.350;7.578;2023-03-26T10:11:02;98303.81;;;8.84;89.18
47883;BME280;37739;50.350;7.578;2023-03-26T10:14:03;98317.16;;;8.70;90.06
47883;BME280;37739;50.350;7.578;2023-03-26T10:19:47;98306.53;;;8.50;89.77
47883;BME280;37739;50.350;7.578;2023-03-26T10:25:16;98301.06;;;8.34;89.62
47883;BME280;37739;50.350;7.578;2023-03-26T10:55:37;98269.06;;;8.52;91.06
47883;BME280;37739;50.350;7.578;2023-03-26T11:00:40;98262.72;;;8.74;90.44
47883;BME280;37739;50.350;7.578;2023-03-26T11:11:56;98255.09;;;8.77;91.67
47883;BME280;37739;50.350;7.578;2023-03-26T11:14:45;98266.16;;;8.76;92.10
47883;BME280;37739;50.350;7.578;2023-03-26T11:17:17;98256.81;;;8.78;91.10
47883;BME280;37739;50.350;7.578;2023-03-26T11:22:41;98266.25;;;8.80;91.78
47883;BME280;37739;50.350;7.578;2023-03-26T11:25:23;98255.34;;;8.91;91.34
47883;BME280;37739;50.350;7.578;2023-03-26T11:30:47;98245.22;;;8.95;90.36
47883;BME280;37739;50.350;7.578;2023-03-26T11:33:26;98250.34;;;8.95;90.55
47883;BME280;37739;50.350;7.578;2023-03-26T11:35:56;98236.72;;;8.98;90.31
47883;BME280;37739;50.350;7.578;2023-03-26T11:41:23;98236.19;;;9.14;91.74
47883;BME280;37739;50.350;7.578;2023-03-26T11:43:56;98230.38;;;9.24;91.11
47883;BME280;37739;50.350;7.578;2023-03-26T11:46:25;98230.63;;;9.40;91.83
47883;BME280;37739;50.350;7.578;2023-03-26T11:49:00;98218.97;;;9.57;91.30
47883;BME280;37739;50.350;7.578;2023-03-26T11:54:05;98213.50;;;9.92;89.37
47883;BME280;37739;50.350;7.578;2023-03-26T11:56:45;98217.91;;;10.02;89.66
47883;BME280;37739;50.350;7.578;2023-03-26T11:59:35;98221.25;;;9.95;88.94
47883;BME280;37739;50.350;7.578;2023-03-26T12:07:06;98202.69;;;10.13;89.00
47883;BME280;37739;50.350;7.578;2023-03-26T12:09:33;98203.88;;;10.38;87.77
47883;BME280;37739;50.350;7.578;2023-03-26T12:12:02;98199.78;;;10.53;86.47
47883;BME280;37739;50.350;7.578;2023-03-26T12:14:31;98203.63;;;10.92;85.86
47883;BME280;37739;50.350;7.578;2023-03-26T12:16:59;98204.69;;;11.14;83.59
47883;BME280;37739;50.350;7.578;2023-03-26T12:19:24;98174.72;;;11.11;82.93
47883;BME280;37739;50.350;7.578;2023-03-26T12:21:52;98189.19;;;11.03;81.92
47883;BME280;37739;50.350;7.578;2023-03-26T12:24:30;98183.91;;;10.86;81.50
47883;BME280;37739;50.350;7.578;2023-03-26T12:27:05;98192.50;;;10.91;81.24
47883;BME280;37739;50.350;7.578;2023-03-26T12:30:19;98183.09;;;10.95;79.28
47883;BME280;37739;50.350;7.578;2023-03-26T12:32:49;98182.47;;;11.17;76.27
47883;BME280;37739;50.350;7.578;2023-03-26T12:35:27;98185.25;;;11.44;77.19
47883;BME280;37739;50.350;7.578;2023-03-26T12:40:38;98173.66;;;12.01;75.90
47883;BME280;37739;50.350;7.578;2023-03-26T12:43:22;98177.13;;;12.12;72.64
47883;BME280;37739;50.350;7.578;2023-03-26T12:45:55;98166.94;;;12.32;73.82
47883;BME280;37739;50.350;7.578;2023-03-26T12:48:23;98169.53;;;12.34;72.43
47883;BME280;37739;50.350;7.578;2023-03-26T12:54:01;98161.69;;;12.08;72.06
47883;BME280;37739;50.350;7.578;2023-03-26T13:10:28;98162.81;;;12.90;68.60
47883;BME280;37739;50.350;7.578;2023-03-26T13:15:47;98161.94;;;12.92;66.62
47883;BME280;37739;50.350;7.578;2023-03-26T13:21:13;98161.97;;;13.02;64.76
47883;BME280;37739;50.350;7.578;2023-03-26T13:37:51;98173.69;;;12.10;68.15
47883;BME280;37739;50.350;7.578;2023-03-26T13:46:15;98165.00;;;11.88;66.46
47883;BME280;37739;50.350;7.578;2023-03-26T13:49:11;98169.13;;;11.66;67.16
47883;BME280;37739;50.350;7.578;2023-03-26T13:54:29;98174.19;;;11.54;72.17
47883;BME280;37739;50.350;7.578;2023-03-26T13:57:19;98181.56;;;11.14;76.35
47883;BME280;37739;50.350;7.578;2023-03-26T14:02:36;98180.41;;;10.81;78.72
47883;BME280;37739;50.350;7.578;2023-03-26T14:05:15;98188.00;;;10.72;80.03
47883;BME280;37739;50.350;7.578;2023-03-26T14:07:52;98182.97;;;10.78;80.47
47883;BME280;37739;50.350;7.578;2023-03-26T14:10:24;98191.72;;;11.00;80.96
47883;BME280;37739;50.350;7.578;2023-03-26T14:26:20;98211.03;;;10.66;81.59
47883;BME280;37739;50.350;7.578;2023-03-26T14:31:55;98212.44;;;10.40;80.56
47883;BME280;37739;50.350;7.578;2023-03-26T14:40:27;98214.41;;;9.96;81.02
47883;BME280;37739;50.350;7.578;2023-03-26T14:43:15;98223.81;;;9.98;81.34
47883;BME280;37739;50.350;7.578;2023-03-26T14:48:51;98232.41;;;9.99;81.47
47883;BME280;37739;50.350;7.578;2023-03-26T14:54:30;98237.44;;;9.94;81.81
47883;BME280;37739;50.350;7.578;2023-03-26T15:14:00;98230.59;;;9.93;80.77
47883;BME280;37739;50.350;7.578;2023-03-26T15:44:10;98266.66;;;10.07;82.62
47883;BME280;37739;50.350;7.578;2023-03-26T15:46:53;98272.38;;;9.89;82.80
47883;BME280;37739;50.350;7.578;2023-03-26T15:49:39;98271.38;;;9.81;84.11
47883;BME280;37739;50.350;7.578;2023-03-26T15:52:23;98276.50;;;9.81;84.28
47883;BME280;37739;50.350;7.578;2023-03-26T15:54:57;98277.13;;;9.65;84.34
47883;BME280;37739;50.350;7.578;2023-03-26T15:57:36;98270.34;;;9.70;85.17
47883;BME280;37739;50.350;7.578;2023-03-26T16:00:23;98281.28;;;9.59;85.69
47883;BME280;37739;50.350;7.578;2023-03-26T16:03:25;98288.06;;;9.56;86.31
47883;BME280;37739;50.350;7.578;2023-03-26T16:14:20;98286.66;;;9.75;88.14
47883;BME280;37739;50.350;7.578;2023-03-26T16:16:54;98288.50;;;9.82;88.37
47883;BME280;37739;50.350;7.578;2023-03-26T16:22:06;98289.09;;;9.67;88.66
47883;BME280;37739;50.350;7.578;2023-03-26T16:24:34;98290.50;;;9.48;89.36
47883;BME280;37739;50.350;7.578;2023-03-26T16:27:29;98300.47;;;9.33;89.91
47883;BME280;37739;50.350;7.578;2023-03-26T16:30:13;98303.84;;;9.30;90.12
47883;BME280;37739;50.350;7.578;2023-03-26T16:45:22;98319.78;;;9.17;89.54
47883;BME280;37739;50.350;7.578;2023-03-26T16:48:08;98328.00;;;8.99;89.77
47883;BME280;37739;50.350;7.578;2023-03-26T16:50:44;98330.56;;;9.00;90.98
47883;BME280;37739;50.350;7.578;2023-03-26T16:58:58;98334.06;;;9.06;92.62
47883;BME280;37739;50.350;7.578;2023-03-26T17:01:56;98338.44;;;9.11;92.22
47883;BME280;37739;50.350;7.578;2023-03-26T17:04:28;98339.13;;;9.02;92.35
47883;BME280;37739;50.350;7.578;2023-03-26T17:07:11;98335.75;;;9.03;92.70
47883;BME280;37739;50.350;7.578;2023-03-26T17:12:38;98343.25;;;8.96;92.65
47883;BME280;37739;50.350;7.578;2023-03-26T17:18:01;98357.28;;;8.72;90.77
47883;BME280;37739;50.350;7.578;2023-03-26T17:20:48;98368.16;;;8.63;91.86
47883;BME280;37739;50.350;7.578;2023-03-26T17:26:27;98369.78;;;8.60;92.20
47883;BME280;37739;50.350;7.578;2023-03-26T17:32:05;98371.44;;;8.58;90.99
47883;BME280;37739;50.350;7.578;2023-03-26T17:47:32;98392.47;;;8.46;91.53
47883;BME280;37739;50.350;7.578;2023-03-26T17:50:19;98395.94;;;8.48;90.82
47883;BME280;37739;50.350;7.578;2023-03-26T17:52:59;98405.94;;;8.40;91.76
47883;BME280;37739;50.350;7.578;2023-03-26T17:55:36;98407.56;;;8.35;92.89
47883;BME280;37739;50.350;7.578;2023-03-26T17:58:04;98406.75;;;8.38;92.71
47883;BME280;37739;50.350;7.578;2023-03-26T18:00:39;98412.53;;;8.31;92.90
47883;BME280;37739;50.350;7.578;2023-03-26T18:03:32;98415.84;;;8.26;93.64
47883;BME280;37739;50.350;7.578;2023-03-26T18:06:08;98417.47;;;8.23;93.33
47883;BME280;37739;50.350;7.578;2023-03-26T18:08:54;98422.44;;;8.17;93.88
47883;BME280;37739;50.350;7.578;2023-03-26T18:11:46;98429.25;;;8.16;94.22
47883;BME280;37739;50.350;7.578;2023-03-26T18:17:41;98437.84;;;7.86;96.12
47883;BME280;37739;50.350;7.578;2023-03-26T18:20:25;98445.47;;;7.85;95.58
47883;BME280;37739;50.350;7.578;2023-03-26T18:22:52;98443.66;;;7.81;96.92
47883;BME280;37739;50.350;7.578;2023-03-26T18:25:28;98452.66;;;7.66;97.25
47883;BME280;37739;50.350;7.578;2023-03-26T18:27:57;98456.81;;;7.63;97.11
47883;BME280;37739;50.350;7.578;2023-03-26T18:30:24;98465.06;;;7.54;97.07
47883;BME280;37739;50.350;7.578;2023-03-26T18:33:11;98469.41;;;7.57;97.83
47883;BME280;37739;50.350;7.578;2023-03-26T18:35:49;98466.91;;;7.58;97.47
47883;BME280;37739;50.350;7.578;2023-03-26T18:38:19;98472.06;;;7.61;97.63
47883;BME280;37739;50.350;7.578;2023-03-26T18:40:49;98481.63;;;7.69;96.85
47883;BME280;37739;50.350;7.578;2023-03-26T18:43:19;98478.81;;;7.59;96.00
47883;BME280;37739;50.350;7.578;2023-03-26T18:45:50;98487.69;;;7.42;95.84
47883;BME280;37739;50.350;7.578;2023-03-26T18:48:22;98488.50;;;7.41;95.86
47883;BME280;37739;50.350;7.578;2023-03-26T18:51:07;98505.59;;;7.43;96.44
47883;BME280;37739;50.350;7.578;2023-03-26T18:53:44;98502.97;;;7.40;96.17
47883;BME280;37739;50.350;7.578;2023-03-26T18:59:00;98517.00;;;7.26;97.75
47883;BME280;37739;50.350;7.578;2023-03-26T19:01:30;98517.63;;;7.19;97.78
47883;BME280;37739;50.350;7.578;2023-03-26T19:04:05;98522.50;;;7.11;98.47
47883;BME280;37739;50.350;7.578;2023-03-26T19:06:33;98524.88;;;7.05;99.01
47883;BME280;37739;50.350;7.578;2023-03-26T19:09:04;98534.19;;;7.03;99.05
47883;BME280;37739;50.350;7.578;2023-03-26T19:11:37;98538.38;;;7.01;98.15
47883;BME280;37739;50.350;7.578;2023-03-26T19:14:16;98548.75;;;7.07;98.86
47883;BME280;37739;50.350;7.578;2023-03-26T19:16:44;98556.84;;;6.94;98.84
47883;BME280;37739;50.350;7.578;2023-03-26T19:19:19;98561.31;;;7.01;99.30
47883;BME280;37739;50.350;7.578;2023-03-26T19:21:48;98564.19;;;6.84;95.71
47883;BME280;37739;50.350;7.578;2023-03-26T19:24:15;98573.66;;;6.88;95.73
47883;BME280;37739;50.350;7.578;2023-03-26T19:26:41;98574.69;;;6.94;95.83